sensor_id;sensor_type;location;lat;lon;timestamp;temperature;humidity
26107;DHT22;13866;50.748;12.630;2023-05-10T00:01:04;10.20;99.90
26107;DHT22;13866;50.748;12.630;2023-05-10T00:03:29;10.10;99.90
26107;DHT22;13866;50.748;12.630;2023-05-10T00:05:55;10.10;99.90
26107;DHT22;13866;50.748;12.630;2023-05-10T00:08:20;10.00;99.90
26107;DHT22;13866;50.748;12.630;2023-05-10T00:10:46;10.00;99.90
26107;DHT22;13866;50.748;12.630;2023-05-10T00:13:11;10.10;99.90
26107;DHT22;13866;50.748;12.630;2023-05-10T00:15:37;10.00;99.90
26107;DHT22;13866;50.748;12.630;2023-05-10T00:18:02;10.00;99.90
26107;DHT22;13866;50.748;12.630;2023-05-10T00:20:28;10.00;99.90
26107;DHT22;13866;50.748;12.630;2023-05-10T00:22:53;10.00;99.90
26107;DHT22;13866;50.748;12.630;2023-05-10T00:25:19;10.00;99.90
26107;DHT22;13866;50.748;12.630;2023-05-10T00:27:45;10.00;99.90
26107;DHT22;13866;50.748;12.630;2023-05-10T00:30:11;9.90;99.90
26107;DHT22;13866;50.748;12.630;2023-05-10T00:32:36;9.90;99.90
26107;DHT22;13866;50.748;12.630;2023-05-10T00:35:02;9.70;99.90
26107;DHT22;13866;50.748;12.630;2023-05-10T00:37:27;9.70;99.90
26107;DHT22;13866;50.748;12.630;2023-05-10T00:39:53;9.70;99.90
26107;DHT22;13866;50.748;12.630;2023-05-10T00:42:18;9.50;99.90
26107;DHT22;13866;50.748;12.630;2023-05-10T00:44:44;9.40;99.90
26107;DHT22;13866;50.748;12.630;2023-05-10T00:47:10;9.30;99.90
26107;DHT22;13866;50.748;12.630;2023-05-10T00:49:36;9.30;99.90
26107;DHT22;13866;50.748;12.630;2023-05-10T00:52:02;9.20;99.90
26107;DHT22;13866;50.748;12.630;2023-05-10T00:54:28;9.20;99.90
26107;DHT22;13866;50.748;12.630;2023-05-10T00:56:54;9.20;99.90
26107;DHT22;13866;50.748;12.630;2023-05-10T00:59:20;9.30;99.90
26107;DHT22;13866;50.748;12.630;2023-05-10T01:01:46;9.30;99.90
26107;DHT22;13866;50.748;12.630;2023-05-10T01:04:13;9.30;99.90
26107;DHT22;13866;50.748;12.630;2023-05-10T01:06:42;9.30;99.90
26107;DHT22;13866;50.748;12.630;2023-05-10T01:09:07;9.40;99.90
26107;DHT22;13866;50.748;12.630;2023-05-10T01:11:38;9.40;99.90
26107;DHT22;13866;50.748;12.630;2023-05-10T01:14:05;9.40;99.90
26107;DHT22;13866;50.748;12.630;2023-05-10T01:16:36;9.40;99.90
26107;DHT22;13866;50.748;12.630;2023-05-10T01:19:01;9.30;99.90
26107;DHT22;13866;50.748;12.630;2023-05-10T01:21:38;9.30;99.90
26107;DHT22;13866;50.748;12.630;2023-05-10T01:24:29;9.30;99.90
26107;DHT22;13866;50.748;12.630;2023-05-10T01:30:00;9.10;99.90
26107;DHT22;13866;50.748;12.630;2023-05-10T01:35:23;9.10;99.90
26107;DHT22;13866;50.748;12.630;2023-05-10T01:38:07;9.00;99.90
26107;DHT22;13866;50.748;12.630;2023-05-10T01:40:56;9.00;99.90
26107;DHT22;13866;50.748;12.630;2023-05-10T01:43:29;9.00;99.90
26107;DHT22;13866;50.748;12.630;2023-05-10T01:46:07;8.90;99.90
26107;DHT22;13866;50.748;12.630;2023-05-10T01:48:39;8.70;99.90
26107;DHT22;13866;50.748;12.630;2023-05-10T01:51:06;8.60;99.90
26107;DHT22;13866;50.748;12.630;2023-05-10T01:53:33;8.70;99.90
26107;DHT22;13866;50.748;12.630;2023-05-10T01:56:00;8.90;99.90
26107;DHT22;13866;50.748;12.630;2023-05-10T01:58:30;8.80;99.90
26107;DHT22;13866;50.748;12.630;2023-05-10T02:00:58;8.70;99.90
26107;DHT22;13866;50.748;12.630;2023-05-10T02:03:26;8.50;99.90
26107;DHT22;13866;50.748;12.630;2023-05-10T02:05:53;8.40;99.90
26107;DHT22;13866;50.748;12.630;2023-05-10T02:08:21;8.30;99.90
26107;DHT22;13866;50.748;12.630;2023-05-10T02:10:49;8.20;99.90
26107;DHT22;13866;50.748;12.630;2023-05-10T02:13:17;8.30;99.90
26107;DHT22;13866;50.748;12.630;2023-05-10T02:15:43;8.20;99.90
26107;DHT22;13866;50.748;12.630;2023-05-10T02:18:11;8.00;99.90
26107;DHT22;13866;50.748;12.630;2023-05-10T02:20:38;8.00;99.90
26107;DHT22;13866;50.748;12.630;2023-05-10T02:23:04;7.90;99.90
26107;DHT22;13866;50.748;12.630;2023-05-10T02:25:31;7.90;99.90
26107;DHT22;13866;50.748;12.630;2023-05-10T02:27:58;7.90;99.90
26107;DHT22;13866;50.748;12.630;2023-05-10T02:30:25;7.90;99.90
26107;DHT22;13866;50.748;12.630;2023-05-10T02:32:51;8.00;99.90
26107;DHT22;13866;50.748;12.630;2023-05-10T02:35:17;7.90;99.90
26107;DHT22;13866;50.748;12.630;2023-05-10T02:37:44;8.10;99.90
26107;DHT22;13866;50.748;12.630;2023-05-10T02:40:10;8.10;99.90
26107;DHT22;13866;50.748;12.630;2023-05-10T02:42:38;8.10;99.90
26107;DHT22;13866;50.748;12.630;2023-05-10T02:45:10;8.10;99.90
26107;DHT22;13866;50.748;12.630;2023-05-10T02:47:36;8.10;99.90
26107;DHT22;13866;50.748;12.630;2023-05-10T02:50:02;7.90;99.90
26107;DHT22;13866;50.748;12.630;2023-05-10T02:52:30;8.00;99.90
26107;DHT22;13866;50.748;12.630;2023-05-10T02:55:03;8.10;99.90
26107;DHT22;13866;50.748;12.630;2023-05-10T02:57:33;8.10;99.90
26107;DHT22;13866;50.748;12.630;2023-05-10T03:00:00;7.90;99.90
26107;DHT22;13866;50.748;12.630;2023-05-10T03:02:26;7.80;99.90
26107;DHT22;13866;50.748;12.630;2023-05-10T03:04:52;7.80;99.90
26107;DHT22;13866;50.748;12.630;2023-05-10T03:07:18;7.90;99.90
26107;DHT22;13866;50.748;12.630;2023-05-10T03:09:47;7.90;99.90
26107;DHT22;13866;50.748;12.630;2023-05-10T03:17:46;7.80;99.90
26107;DHT22;13866;50.748;12.630;2023-05-10T03:20:20;7.90;99.90
26107;DHT22;13866;50.748;12.630;2023-05-10T03:23:02;8.00;99.90
26107;DHT22;13866;50.748;12.630;2023-05-10T03:25:31;8.10;99.90
26107;DHT22;13866;50.748;12.630;2023-05-10T03:27:57;8.30;99.90
26107;DHT22;13866;50.748;12.630;2023-05-10T03:30:24;8.40;99.90
26107;DHT22;13866;50.748;12.630;2023-05-10T03:32:50;8.50;99.90
26107;DHT22;13866;50.748;12.630;2023-05-10T03:35:15;8.60;99.90
26107;DHT22;13866;50.748;12.630;2023-05-10T03:37:41;8.70;99.90
26107;DHT22;13866;50.748;12.630;2023-05-10T03:40:07;8.80;99.90
26107;DHT22;13866;50.748;12.630;2023-05-10T03:42:32;9.00;99.90
26107;DHT22;13866;50.748;12.630;2023-05-10T03:44:58;9.00;99.90
26107;DHT22;13866;50.748;12.630;2023-05-10T03:47:23;9.00;99.90
26107;DHT22;13866;50.748;12.630;2023-05-10T03:49:49;9.10;99.90
26107;DHT22;13866;50.748;12.630;2023-05-10T03:52:14;9.10;99.90
26107;DHT22;13866;50.748;12.630;2023-05-10T03:54:40;9.20;99.90
26107;DHT22;13866;50.748;12.630;2023-05-10T03:57:06;9.20;99.90
26107;DHT22;13866;50.748;12.630;2023-05-10T03:59:31;9.30;99.90
26107;DHT22;13866;50.748;12.630;2023-05-10T04:01:57;9.40;99.90
26107;DHT22;13866;50.748;12.630;2023-05-10T04:04:22;9.40;99.90
26107;DHT22;13866;50.748;12.630;2023-05-10T04:06:48;9.40;99.90
26107;DHT22;13866;50.748;12.630;2023-05-10T04:09:14;9.70;99.90
26107;DHT22;13866;50.748;12.630;2023-05-10T04:11:39;9.80;99.90
26107;DHT22;13866;50.748;12.630;2023-05-10T04:14:05;10.00;99.90
26107;DHT22;13866;50.748;12.630;2023-05-10T04:16:30;10.10;99.90
26107;DHT22;13866;50.748;12.630;2023-05-10T04:18:56;10.10;99.90
26107;DHT22;13866;50.748;12.630;2023-05-10T04:21:21;10.10;99.90
26107;DHT22;13866;50.748;12.630;2023-05-10T04:23:47;10.30;99.90
26107;DHT22;13866;50.748;12.630;2023-05-10T04:26:13;10.40;99.90
26107;DHT22;13866;50.748;12.630;2023-05-10T04:28:38;10.50;99.90
26107;DHT22;13866;50.748;12.630;2023-05-10T04:31:07;10.60;99.90
26107;DHT22;13866;50.748;12.630;2023-05-10T04:33:33;10.70;99.90
26107;DHT22;13866;50.748;12.630;2023-05-10T04:35:59;10.80;99.90
26107;DHT22;13866;50.748;12.630;2023-05-10T04:38:25;10.90;99.90
26107;DHT22;13866;50.748;12.630;2023-05-10T04:40:50;11.00;99.90
26107;DHT22;13866;50.748;12.630;2023-05-10T04:43:16;11.10;99.90
26107;DHT22;13866;50.748;12.630;2023-05-10T04:45:41;11.20;99.90
26107;DHT22;13866;50.748;12.630;2023-05-10T04:48:07;11.30;99.90
26107;DHT22;13866;50.748;12.630;2023-05-10T04:50:33;11.40;99.90
26107;DHT22;13866;50.748;12.630;2023-05-10T04:52:58;11.40;99.90
26107;DHT22;13866;50.748;12.630;2023-05-10T04:55:24;11.40;99.90
26107;DHT22;13866;50.748;12.630;2023-05-10T04:57:50;11.50;99.90
26107;DHT22;13866;50.748;12.630;2023-05-10T05:00:16;11.60;99.90
26107;DHT22;13866;50.748;12.630;2023-05-10T05:02:45;11.70;99.90
26107;DHT22;13866;50.748;12.630;2023-05-10T05:05:12;11.70;99.90
26107;DHT22;13866;50.748;12.630;2023-05-10T05:07:37;11.80;99.90
26107;DHT22;13866;50.748;12.630;2023-05-10T05:10:05;11.90;99.90
26107;DHT22;13866;50.748;12.630;2023-05-10T05:12:31;12.00;99.90
26107;DHT22;13866;50.748;12.630;2023-05-10T05:14:56;12.10;99.90
26107;DHT22;13866;50.748;12.630;2023-05-10T05:17:22;12.10;99.90
26107;DHT22;13866;50.748;12.630;2023-05-10T05:19:47;12.20;99.90
26107;DHT22;13866;50.748;12.630;2023-05-10T05:22:13;12.20;99.90
26107;DHT22;13866;50.748;12.630;2023-05-10T05:24:38;12.30;99.90
26107;DHT22;13866;50.748;12.630;2023-05-10T05:27:04;12.30;99.90
26107;DHT22;13866;50.748;12.630;2023-05-10T05:29:29;12.50;99.90
26107;DHT22;13866;50.748;12.630;2023-05-10T05:31:55;12.60;99.90
26107;DHT22;13866;50.748;12.630;2023-05-10T05:34:20;12.70;99.90
26107;DHT22;13866;50.748;12.630;2023-05-10T05:36:47;12.80;99.90
26107;DHT22;13866;50.748;12.630;2023-05-10T05:39:12;12.90;99.90
26107;DHT22;13866;50.748;12.630;2023-05-10T05:41:37;12.90;99.90
26107;DHT22;13866;50.748;12.630;2023-05-10T05:44:03;13.00;99.90
26107;DHT22;13866;50.748;12.630;2023-05-10T05:46:28;13.00;99.90
26107;DHT22;13866;50.748;12.630;2023-05-10T05:48:54;12.80;99.90
26107;DHT22;13866;50.748;12.630;2023-05-10T05:51:20;12.90;99.90
26107;DHT22;13866;50.748;12.630;2023-05-10T05:53:46;12.90;99.90
26107;DHT22;13866;50.748;12.630;2023-05-10T05:56:11;12.90;99.90
26107;DHT22;13866;50.748;12.630;2023-05-10T05:58:36;13.00;99.90
26107;DHT22;13866;50.748;12.630;2023-05-10T06:01:02;13.00;99.90
26107;DHT22;13866;50.748;12.630;2023-05-10T06:03:28;13.00;99.90
26107;DHT22;13866;50.748;12.630;2023-05-10T06:05:53;12.90;99.90
26107;DHT22;13866;50.748;12.630;2023-05-10T06:08:18;13.00;99.90
26107;DHT22;13866;50.748;12.630;2023-05-10T06:10:44;13.00;99.90
26107;DHT22;13866;50.748;12.630;2023-05-10T06:13:10;12.90;99.90
26107;DHT22;13866;50.748;12.630;2023-05-10T06:15:36;12.90;99.90
26107;DHT22;13866;50.748;12.630;2023-05-10T06:18:01;12.90;99.90
26107;DHT22;13866;50.748;12.630;2023-05-10T06:20:27;12.90;99.90
26107;DHT22;13866;50.748;12.630;2023-05-10T06:22:52;13.10;99.90
26107;DHT22;13866;50.748;12.630;2023-05-10T06:25:18;13.20;99.90
26107;DHT22;13866;50.748;12.630;2023-05-10T06:27:44;13.30;99.90
26107;DHT22;13866;50.748;12.630;2023-05-10T06:30:10;13.50;99.90
26107;DHT22;13866;50.748;12.630;2023-05-10T06:32:39;13.50;99.90
26107;DHT22;13866;50.748;12.630;2023-05-10T06:35:05;13.50;99.90
26107;DHT22;13866;50.748;12.630;2023-05-10T06:37:30;13.60;99.90
26107;DHT22;13866;50.748;12.630;2023-05-10T06:39:56;13.90;99.90
26107;DHT22;13866;50.748;12.630;2023-05-10T06:42:21;14.00;99.90
26107;DHT22;13866;50.748;12.630;2023-05-10T06:44:47;14.20;99.90
26107;DHT22;13866;50.748;12.630;2023-05-10T06:47:12;14.10;99.90
26107;DHT22;13866;50.748;12.630;2023-05-10T06:49:38;14.10;99.90
26107;DHT22;13866;50.748;12.630;2023-05-10T06:52:03;14.10;99.90
26107;DHT22;13866;50.748;12.630;2023-05-10T06:54:29;14.20;99.90
26107;DHT22;13866;50.748;12.630;2023-05-10T06:56:55;14.20;99.90
26107;DHT22;13866;50.748;12.630;2023-05-10T06:59:20;14.20;99.90
26107;DHT22;13866;50.748;12.630;2023-05-10T07:02:02;14.10;99.90
26107;DHT22;13866;50.748;12.630;2023-05-10T07:04:27;14.10;99.90
26107;DHT22;13866;50.748;12.630;2023-05-10T07:06:53;14.10;99.90
26107;DHT22;13866;50.748;12.630;2023-05-10T07:09:18;13.90;99.90
26107;DHT22;13866;50.748;12.630;2023-05-10T07:11:44;13.70;99.90
26107;DHT22;13866;50.748;12.630;2023-05-10T07:14:10;13.70;99.90
26107;DHT22;13866;50.748;12.630;2023-05-10T07:16:35;13.70;99.90
26107;DHT22;13866;50.748;12.630;2023-05-10T07:19:01;13.60;99.90
26107;DHT22;13866;50.748;12.630;2023-05-10T07:21:27;13.50;99.90
26107;DHT22;13866;50.748;12.630;2023-05-10T07:23:54;13.40;99.90
26107;DHT22;13866;50.748;12.630;2023-05-10T07:26:19;13.40;99.90
26107;DHT22;13866;50.748;12.630;2023-05-10T07:28:46;13.40;99.90
26107;DHT22;13866;50.748;12.630;2023-05-10T07:31:12;13.30;99.90
26107;DHT22;13866;50.748;12.630;2023-05-10T07:33:37;13.40;99.90
26107;DHT22;13866;50.748;12.630;2023-05-10T07:36:03;13.20;99.90
26107;DHT22;13866;50.748;12.630;2023-05-10T07:38:28;13.20;99.90
26107;DHT22;13866;50.748;12.630;2023-05-10T07:40:54;13.30;99.90
26107;DHT22;13866;50.748;12.630;2023-05-10T07:43:19;13.30;99.90
26107;DHT22;13866;50.748;12.630;2023-05-10T07:45:45;13.30;99.90
26107;DHT22;13866;50.748;12.630;2023-05-10T07:48:10;13.20;99.90
26107;DHT22;13866;50.748;12.630;2023-05-10T07:50:58;13.20;99.90
26107;DHT22;13866;50.748;12.630;2023-05-10T07:53:25;13.20;99.90
26107;DHT22;13866;50.748;12.630;2023-05-10T07:55:53;13.10;99.90
26107;DHT22;13866;50.748;12.630;2023-05-10T07:58:19;13.10;99.90
26107;DHT22;13866;50.748;12.630;2023-05-10T08:00:45;13.00;99.90
26107;DHT22;13866;50.748;12.630;2023-05-10T08:03:10;13.00;99.90
26107;DHT22;13866;50.748;12.630;2023-05-10T08:05:36;12.80;99.90
26107;DHT22;13866;50.748;12.630;2023-05-10T08:08:01;12.70;99.90
26107;DHT22;13866;50.748;12.630;2023-05-10T08:10:27;12.80;99.90
26107;DHT22;13866;50.748;12.630;2023-05-10T08:12:53;12.80;99.90
26107;DHT22;13866;50.748;12.630;2023-05-10T08:15:18;12.80;99.90
26107;DHT22;13866;50.748;12.630;2023-05-10T08:17:44;12.90;99.90
26107;DHT22;13866;50.748;12.630;2023-05-10T08:20:10;12.90;99.90
26107;DHT22;13866;50.748;12.630;2023-05-10T08:22:38;12.80;99.90
26107;DHT22;13866;50.748;12.630;2023-05-10T08:25:03;12.70;99.90
26107;DHT22;13866;50.748;12.630;2023-05-10T08:27:29;12.50;99.90
26107;DHT22;13866;50.748;12.630;2023-05-10T08:29:54;12.50;99.90
26107;DHT22;13866;50.748;12.630;2023-05-10T08:32:20;12.50;99.90
26107;DHT22;13866;50.748;12.630;2023-05-10T08:34:46;12.50;99.90
26107;DHT22;13866;50.748;12.630;2023-05-10T08:37:11;12.50;99.90
26107;DHT22;13866;50.748;12.630;2023-05-10T08:39:38;12.40;99.90
26107;DHT22;13866;50.748;12.630;2023-05-10T08:42:04;12.30;99.90
26107;DHT22;13866;50.748;12.630;2023-05-10T08:44:32;12.20;99.90
26107;DHT22;13866;50.748;12.630;2023-05-10T08:46:59;12.30;99.90
26107;DHT22;13866;50.748;12.630;2023-05-10T08:49:27;12.30;99.90
26107;DHT22;13866;50.748;12.630;2023-05-10T08:51:57;12.30;99.90
26107;DHT22;13866;50.748;12.630;2023-05-10T08:54:24;12.40;99.90
26107;DHT22;13866;50.748;12.630;2023-05-10T08:56:50;12.40;99.90
26107;DHT22;13866;50.748;12.630;2023-05-10T08:59:16;12.40;99.90
26107;DHT22;13866;50.748;12.630;2023-05-10T09:01:43;12.50;99.90
26107;DHT22;13866;50.748;12.630;2023-05-10T09:04:10;12.60;99.90
26107;DHT22;13866;50.748;12.630;2023-05-10T09:06:38;12.60;99.90
26107;DHT22;13866;50.748;12.630;2023-05-10T09:09:04;12.60;99.90
26107;DHT22;13866;50.748;12.630;2023-05-10T09:11:30;12.60;99.90
26107;DHT22;13866;50.748;12.630;2023-05-10T09:13:56;12.70;99.90
26107;DHT22;13866;50.748;12.630;2023-05-10T09:16:23;12.80;99.90
26107;DHT22;13866;50.748;12.630;2023-05-10T09:18:48;12.90;99.90
26107;DHT22;13866;50.748;12.630;2023-05-10T09:21:20;12.90;99.90
26107;DHT22;13866;50.748;12.630;2023-05-10T09:23:47;13.10;99.90
26107;DHT22;13866;50.748;12.630;2023-05-10T09:26:22;13.10;99.90
26107;DHT22;13866;50.748;12.630;2023-05-10T09:28:54;13.30;99.90
26107;DHT22;13866;50.748;12.630;2023-05-10T09:31:21;13.30;99.90
26107;DHT22;13866;50.748;12.630;2023-05-10T09:33:50;13.20;99.90
26107;DHT22;13866;50.748;12.630;2023-05-10T09:36:16;13.20;99.90
26107;DHT22;13866;50.748;12.630;2023-05-10T09:38:50;13.30;99.90
26107;DHT22;13866;50.748;12.630;2023-05-10T09:41:22;13.30;99.90
26107;DHT22;13866;50.748;12.630;2023-05-10T09:43:48;13.30;99.90
26107;DHT22;13866;50.748;12.630;2023-05-10T09:46:14;13.30;99.90
26107;DHT22;13866;50.748;12.630;2023-05-10T09:48:42;13.40;99.90
26107;DHT22;13866;50.748;12.630;2023-05-10T09:51:23;13.50;99.90
26107;DHT22;13866;50.748;12.630;2023-05-10T09:54:11;13.60;99.90
26107;DHT22;13866;50.748;12.630;2023-05-10T09:56:37;13.70;99.90
26107;DHT22;13866;50.748;12.630;2023-05-10T09:59:06;13.60;99.90
26107;DHT22;13866;50.748;12.630;2023-05-10T10:01:33;13.70;99.90
26107;DHT22;13866;50.748;12.630;2023-05-10T10:04:06;13.80;99.90
26107;DHT22;13866;50.748;12.630;2023-05-10T10:06:44;13.80;99.90
26107;DHT22;13866;50.748;12.630;2023-05-10T10:09:10;13.80;99.90
26107;DHT22;13866;50.748;12.630;2023-05-10T10:11:37;13.80;99.90
26107;DHT22;13866;50.748;12.630;2023-05-10T10:14:03;13.70;99.90
26107;DHT22;13866;50.748;12.630;2023-05-10T10:16:29;13.60;99.90
26107;DHT22;13866;50.748;12.630;2023-05-10T10:18:56;13.70;99.90
26107;DHT22;13866;50.748;12.630;2023-05-10T10:21:22;13.50;99.90
26107;DHT22;13866;50.748;12.630;2023-05-10T10:23:48;13.60;99.90
26107;DHT22;13866;50.748;12.630;2023-05-10T10:26:14;13.50;99.90
26107;DHT22;13866;50.748;12.630;2023-05-10T10:29:18;13.60;99.90
26107;DHT22;13866;50.748;12.630;2023-05-10T10:34:29;13.50;99.90
26107;DHT22;13866;50.748;12.630;2023-05-10T10:36:56;13.60;99.90
26107;DHT22;13866;50.748;12.630;2023-05-10T10:39:25;13.70;99.90
26107;DHT22;13866;50.748;12.630;2023-05-10T10:41:53;13.80;99.90
26107;DHT22;13866;50.748;12.630;2023-05-10T10:47:21;13.90;99.90
26107;DHT22;13866;50.748;12.630;2023-05-10T10:50:06;13.80;99.90
26107;DHT22;13866;50.748;12.630;2023-05-10T10:52:37;13.80;99.90
26107;DHT22;13866;50.748;12.630;2023-05-10T10:55:13;13.60;99.90
26107;DHT22;13866;50.748;12.630;2023-05-10T11:00:35;13.50;99.90
26107;DHT22;13866;50.748;12.630;2023-05-10T11:03:06;13.70;99.90
26107;DHT22;13866;50.748;12.630;2023-05-10T11:05:42;13.80;99.90
26107;DHT22;13866;50.748;12.630;2023-05-10T11:10:40;13.60;99.90
26107;DHT22;13866;50.748;12.630;2023-05-10T11:13:27;13.80;99.90
26107;DHT22;13866;50.748;12.630;2023-05-10T11:15:54;13.80;99.90
26107;DHT22;13866;50.748;12.630;2023-05-10T11:18:32;13.70;99.90
26107;DHT22;13866;50.748;12.630;2023-05-10T11:21:01;13.70;99.90
26107;DHT22;13866;50.748;12.630;2023-05-10T11:26:13;13.70;99.90
26107;DHT22;13866;50.748;12.630;2023-05-10T11:28:43;13.80;99.90
26107;DHT22;13866;50.748;12.630;2023-05-10T11:31:10;13.80;99.90
26107;DHT22;13866;50.748;12.630;2023-05-10T11:33:46;13.90;99.90
26107;DHT22;13866;50.748;12.630;2023-05-10T11:36:20;14.10;99.90
26107;DHT22;13866;50.748;12.630;2023-05-10T11:38:47;14.10;99.90
26107;DHT22;13866;50.748;12.630;2023-05-10T11:41:13;13.90;99.90
26107;DHT22;13866;50.748;12.630;2023-05-10T11:43:39;14.00;99.90
26107;DHT22;13866;50.748;12.630;2023-05-10T11:46:12;14.20;99.90
26107;DHT22;13866;50.748;12.630;2023-05-10T11:48:49;14.20;99.90
26107;DHT22;13866;50.748;12.630;2023-05-10T11:51:23;14.40;99.90
26107;DHT22;13866;50.748;12.630;2023-05-10T11:53:50;14.10;99.90
26107;DHT22;13866;50.748;12.630;2023-05-10T11:56:17;14.20;99.90
26107;DHT22;13866;50.748;12.630;2023-05-10T11:58:43;14.30;99.90
26107;DHT22;13866;50.748;12.630;2023-05-10T12:01:09;14.40;99.90
26107;DHT22;13866;50.748;12.630;2023-05-10T12:03:36;14.30;99.90
26107;DHT22;13866;50.748;12.630;2023-05-10T12:06:02;14.50;99.90
26107;DHT22;13866;50.748;12.630;2023-05-10T12:08:29;14.50;99.90
26107;DHT22;13866;50.748;12.630;2023-05-10T12:11:08;14.60;99.90
26107;DHT22;13866;50.748;12.630;2023-05-10T12:13:41;14.50;99.90
26107;DHT22;13866;50.748;12.630;2023-05-10T12:16:17;14.60;99.90
26107;DHT22;13866;50.748;12.630;2023-05-10T12:18:43;14.60;99.90
26107;DHT22;13866;50.748;12.630;2023-05-10T12:21:13;14.70;99.90
26107;DHT22;13866;50.748;12.630;2023-05-10T12:23:39;14.70;99.90
26107;DHT22;13866;50.748;12.630;2023-05-10T12:26:14;14.70;99.90
26107;DHT22;13866;50.748;12.630;2023-05-10T12:28:39;14.60;99.90
26107;DHT22;13866;50.748;12.630;2023-05-10T12:31:06;14.50;99.90
26107;DHT22;13866;50.748;12.630;2023-05-10T12:33:42;14.60;99.90
26107;DHT22;13866;50.748;12.630;2023-05-10T12:36:12;14.60;99.90
26107;DHT22;13866;50.748;12.630;2023-05-10T12:38:43;14.50;99.90
26107;DHT22;13866;50.748;12.630;2023-05-10T12:41:13;14.60;99.90
26107;DHT22;13866;50.748;12.630;2023-05-10T12:43:39;14.80;99.90
26107;DHT22;13866;50.748;12.630;2023-05-10T12:46:15;14.80;99.90
26107;DHT22;13866;50.748;12.630;2023-05-10T12:48:42;14.90;99.90
26107;DHT22;13866;50.748;12.630;2023-05-10T12:51:08;14.80;99.90
26107;DHT22;13866;50.748;12.630;2023-05-10T12:53:35;14.80;99.90
26107;DHT22;13866;50.748;12.630;2023-05-10T12:56:01;14.90;99.90
26107;DHT22;13866;50.748;12.630;2023-05-10T12:58:26;15.00;99.90
26107;DHT22;13866;50.748;12.630;2023-05-10T13:00:52;15.00;99.90
26107;DHT22;13866;50.748;12.630;2023-05-10T13:03:18;15.10;99.90
26107;DHT22;13866;50.748;12.630;2023-05-10T13:05:43;15.10;99.90
26107;DHT22;13866;50.748;12.630;2023-05-10T13:08:09;15.00;99.90
26107;DHT22;13866;50.748;12.630;2023-05-10T13:10:34;15.00;99.90
26107;DHT22;13866;50.748;12.630;2023-05-10T13:13:00;15.10;99.90
26107;DHT22;13866;50.748;12.630;2023-05-10T13:15:26;15.10;99.90
26107;DHT22;13866;50.748;12.630;2023-05-10T13:17:52;15.30;99.90
26107;DHT22;13866;50.748;12.630;2023-05-10T13:20:18;15.30;99.90
26107;DHT22;13866;50.748;12.630;2023-05-10T13:22:44;15.20;99.90
26107;DHT22;13866;50.748;12.630;2023-05-10T13:25:10;15.00;99.90
26107;DHT22;13866;50.748;12.630;2023-05-10T13:27:36;15.20;99.90
26107;DHT22;13866;50.748;12.630;2023-05-10T13:30:02;14.90;99.90
26107;DHT22;13866;50.748;12.630;2023-05-10T13:32:28;14.90;99.90
26107;DHT22;13866;50.748;12.630;2023-05-10T13:34:54;14.80;99.90
26107;DHT22;13866;50.748;12.630;2023-05-10T13:37:20;14.50;99.90
26107;DHT22;13866;50.748;12.630;2023-05-10T13:39:46;14.60;99.90
26107;DHT22;13866;50.748;12.630;2023-05-10T13:42:12;14.80;99.90
26107;DHT22;13866;50.748;12.630;2023-05-10T13:44:38;14.80;99.90
26107;DHT22;13866;50.748;12.630;2023-05-10T13:47:04;14.80;99.90
26107;DHT22;13866;50.748;12.630;2023-05-10T13:49:30;14.70;99.90
26107;DHT22;13866;50.748;12.630;2023-05-10T13:51:56;14.60;99.90
26107;DHT22;13866;50.748;12.630;2023-05-10T13:54:21;14.50;99.90
26107;DHT22;13866;50.748;12.630;2023-05-10T13:56:47;14.30;99.90
26107;DHT22;13866;50.748;12.630;2023-05-10T13:59:14;14.40;99.90
26107;DHT22;13866;50.748;12.630;2023-05-10T14:01:40;14.40;99.90
26107;DHT22;13866;50.748;12.630;2023-05-10T14:04:05;14.40;99.90
26107;DHT22;13866;50.748;12.630;2023-05-10T14:06:53;14.30;99.90
26107;DHT22;13866;50.748;12.630;2023-05-10T14:09:19;14.20;99.90
26107;DHT22;13866;50.748;12.630;2023-05-10T14:11:45;14.10;99.90
26107;DHT22;13866;50.748;12.630;2023-05-10T14:14:11;14.20;99.90
26107;DHT22;13866;50.748;12.630;2023-05-10T14:16:38;14.20;99.90
26107;DHT22;13866;50.748;12.630;2023-05-10T14:19:12;14.30;99.90
26107;DHT22;13866;50.748;12.630;2023-05-10T14:21:38;14.40;99.90
26107;DHT22;13866;50.748;12.630;2023-05-10T14:24:04;14.40;99.90
26107;DHT22;13866;50.748;12.630;2023-05-10T14:26:30;14.40;99.90
26107;DHT22;13866;50.748;12.630;2023-05-10T14:28:55;14.50;99.90
26107;DHT22;13866;50.748;12.630;2023-05-10T14:31:21;14.40;99.90
26107;DHT22;13866;50.748;12.630;2023-05-10T14:33:48;14.50;99.90
26107;DHT22;13866;50.748;12.630;2023-05-10T14:36:13;14.50;99.90
26107;DHT22;13866;50.748;12.630;2023-05-10T14:38:40;14.50;99.90
26107;DHT22;13866;50.748;12.630;2023-05-10T14:41:05;14.30;99.90
26107;DHT22;13866;50.748;12.630;2023-05-10T14:43:31;14.30;99.90
26107;DHT22;13866;50.748;12.630;2023-05-10T14:45:56;14.40;99.90
26107;DHT22;13866;50.748;12.630;2023-05-10T14:48:22;14.60;99.90
26107;DHT22;13866;50.748;12.630;2023-05-10T14:50:47;14.50;99.90
26107;DHT22;13866;50.748;12.630;2023-05-10T14:53:15;14.40;99.90
26107;DHT22;13866;50.748;12.630;2023-05-10T14:55:40;14.30;99.90
26107;DHT22;13866;50.748;12.630;2023-05-10T14:58:06;14.10;99.90
26107;DHT22;13866;50.748;12.630;2023-05-10T15:00:31;14.10;99.90
26107;DHT22;13866;50.748;12.630;2023-05-10T15:02:57;14.10;99.90
26107;DHT22;13866;50.748;12.630;2023-05-10T15:05:23;14.10;99.90
26107;DHT22;13866;50.748;12.630;2023-05-10T15:08:07;14.10;99.90
26107;DHT22;13866;50.748;12.630;2023-05-10T15:10:32;14.10;99.90
26107;DHT22;13866;50.748;12.630;2023-05-10T15:12:58;14.10;99.90
26107;DHT22;13866;50.748;12.630;2023-05-10T15:15:24;14.10;99.90
26107;DHT22;13866;50.748;12.630;2023-05-10T15:17:49;14.30;99.90
26107;DHT22;13866;50.748;12.630;2023-05-10T15:20:15;14.30;99.90
26107;DHT22;13866;50.748;12.630;2023-05-10T15:22:41;14.50;99.90
26107;DHT22;13866;50.748;12.630;2023-05-10T15:25:07;14.50;99.90
26107;DHT22;13866;50.748;12.630;2023-05-10T15:27:32;14.30;99.90
26107;DHT22;13866;50.748;12.630;2023-05-10T15:29:58;14.10;99.90
26107;DHT22;13866;50.748;12.630;2023-05-10T15:32:24;14.10;99.90
26107;DHT22;13866;50.748;12.630;2023-05-10T15:34:50;14.10;99.90
26107;DHT22;13866;50.748;12.630;2023-05-10T15:37:15;14.10;99.90
26107;DHT22;13866;50.748;12.630;2023-05-10T15:39:41;14.10;99.90
26107;DHT22;13866;50.748;12.630;2023-05-10T15:42:06;14.20;99.90
26107;DHT22;13866;50.748;12.630;2023-05-10T15:44:32;14.20;99.90
26107;DHT22;13866;50.748;12.630;2023-05-10T15:47:00;14.20;99.90